• Join FlightAware (Why Join?)
  • Login
  • US Flag 
08:16PM EST


 

Airport Tracker/Info


-or-


 

Live Flight TrackerFlight Track Log ✈ WIG7307 ✈ 24-Apr-2014 ✈ KMDT - KEWR

Flight Track Log - Related Links

Times and Time Zones

All times are in EDT time to prevent confusion due to time zone crossing. See the WIG7307 flight status page for this flight to view local times or setup timezone preferences in your user account.

Time Position Orientation Groundspeed Altitude Reporting Facility
EDT Latitude Longitude Course Direction KTS MPH feet Rate Location/Type
11:29PM 40.3292 -76.6164 72° East  Level FlightAware Approximate
11:30PM 40.3410 -76.5695 72° East  Level FlightAware Approximate
11:31PM 40.3500 -76.5221 90° East  Level FlightAware Approximate
11:32PM 40.3530 -76.4735 68° East  Level FlightAware Approximate
11:33PM 40.3667 -76.4276 68° East  Level FlightAware Approximate
11:34PM 40.3805 -76.3817 68° East  Level FlightAware Approximate
11:35PM 40.3943 -76.3358 69° East  Level FlightAware Approximate
11:36PM 40.4088 -76.2903 66° East  Level FlightAware Approximate
11:36PM 40.3892 -76.2811 79° East 173 199 7,000  Level New York Center
11:37PM 40.4239 -76.2451 66° East  Level FlightAware Approximate
11:37PM 40.3939 -76.2678 65° Northeast 172 198 7,000  Level New York Center
11:38PM 40.4390 -76.1998 66° East  Level FlightAware Approximate
11:38PM 40.4111 -76.2119 68° East 171 197 7,000  Level New York Center
11:39PM 40.4531 -76.1541 72° East  Level FlightAware Approximate
11:39PM 40.4325 -76.1561 63° Northeast 171 197 7,000  Level New York Center
11:40PM 40.4649 -76.1072 72° East  Level FlightAware Approximate
11:40PM 40.4478 -76.0947 72° East 172 198 7,000  Level New York Center
11:41PM 40.4726 -76.0589 79° East  Level FlightAware Approximate
11:41PM 40.4669 -76.0417 65° Northeast 172 198 7,000  Level New York Center
11:42PM 40.4795 -76.0103 79° East  Level FlightAware Approximate
11:42PM 40.4800 -75.9797 74° East 167 192 7,000  Level New York Center
11:43PM 40.4950 -75.9208 71° East 164 189 7,000  Level New York Center
11:44PM 40.5119 -75.8703 66° East 160 184 7,000  Level New York Center
11:45PM 40.5311 -75.8117 67° East 160 184 7,000  Level New York Center
11:46PM 40.5439 -75.7553 73° East 168 193 7,000  Level New York Center
11:47PM 40.5611 -75.6936 70° East 168 193 7,000  Level New York Center
11:48PM 40.5758 -75.6400 70° East 165 190 7,000  Level New York Center
11:49PM 40.5947 -75.5867 65° Northeast 162 186 7,000  Level New York Center
11:50PM 40.6094 -75.5275 72° East 160 184 7,000  Level New York Center
11:51PM 40.6264 -75.4714 68° East 172 198 7,000  Level New York Center
11:52PM 40.6414 -75.4067 73° East 175 201 7,000 -102 Level New York Center
11:53PM 40.6564 -75.3447 72° East 172 198 6,800 -397 Descending New York Center
11:54PM 40.6711 -75.2856 72° East 182 209 6,200 -255 Descending New York Center
11:56PM 40.7167 -75.1500 66° East 164 189 6,000 -65 Descending New York TRACON
11:57PM 40.7333 -75.1000 66° East 163 188 6,000  Level New York TRACON
11:58PM 40.7500 -75.0500 66° East 158 182 6,000  Level New York TRACON
11:59PM 40.7667 -74.9833 72° East 161 185 6,000  Level New York TRACON
12:00AM 40.7833 -74.9333 66° East 160 184 6,000  Level New York TRACON
12:01AM 40.7833 -74.8667 90° East 159 183 6,000 50 Level New York TRACON
12:02AM 40.8000 -74.8167 66° East 160 184 6,100 -190 Climbing New York TRACON
12:03AM 40.8000 -74.7500 90° East 186 214 5,600 -624 Descending New York TRACON
12:04AM 40.7833 -74.6833 108° East 197 227 4,800 -800 Descending New York TRACON
12:05AM 40.7333 -74.6667 166° South 183 211 4,000 -400 Descending New York TRACON
12:06AM 40.6833 -74.6500 166° South 176 203 4,000  Level New York TRACON
12:07AM 40.6333 -74.6333 166° South 171 197 4,000  Level New York TRACON
12:08AM 40.6000 -74.6167 159° South 162 186 4,000  Level New York TRACON
12:09AM 40.5667 -74.6500 217° Southwest 159 183 4,000  Level New York TRACON
12:10AM 40.5333 -74.7000 229° Southwest 153 176 4,000  Level New York TRACON
12:11AM 40.5000 -74.7333 217° Southwest 150 173 4,000  Level New York TRACON
12:12AM 40.5000 -74.7833 270° West 151 174 4,000  Level New York TRACON
12:13AM 40.5000 -74.8500 270° West 153 176 4,000  Level New York TRACON
12:14AM 40.5167 -74.8833 303° West 139 160 4,000  Level New York TRACON
12:15AM 40.5500 -74.8667 21° North 126 145 4,000  Level New York TRACON
12:16AM 40.5667 -74.8333 57° Northeast 137 158 4,000 -150 Level New York TRACON
12:17AM 40.5833 -74.7833 66° East 155 178 3,700 -400 Descending New York TRACON
12:18AM 40.5833 -74.7167 90° East 164 189 3,200 -350 Descending New York TRACON
12:19AM 40.5833 -74.6667 90° East 166 191 3,000 -100 Descending New York TRACON
12:20AM 40.5667 -74.6000 108° East 170 196 3,000  Level New York TRACON
12:21AM 40.5333 -74.5667 143° Southeast 171 197 3,000  Level New York TRACON
12:22AM 40.5000 -74.5167 131° Southeast 176 203 3,000  Level New York TRACON
12:23AM 40.4667 -74.4667 131° Southeast 169 194 3,000  Level New York TRACON
12:24AM 40.4333 -74.4333 143° Southeast 172 198 3,000  Level New York TRACON
12:25AM 40.4000 -74.3833 131° Southeast 170 196 3,000  Level New York TRACON
12:26AM 40.4000 -74.3333 90° East 169 194 3,000  Level New York TRACON
12:27AM 40.4500 -74.3167 14° North 149 171 3,000  Level New York TRACON
12:28AM 40.4833 -74.3000 21° North 149 171 3,000  Level New York TRACON
12:29AM 40.5167 -74.2667 37° Northeast 150 173 3,000  Level New York TRACON
12:30AM 40.5500 -74.2500 21° North 148 170 3,000 -421 Level New York TRACON
12:31AM 40.5833 -74.2333 21° North 152 175 2,200 -895 Descending New York TRACON
12:32AM 40.6167 -74.2000 37° Northeast 152 175 1,300 -833 Descending New York TRACON
12:33AM 40.6500 -74.1833 21° North 110 127 700 -667 Descending New York TRACON
12:35AM 40.6833 -74.1667 30° Northeast  Level FlightAware Approximate
12:42AM 40.6925 -74.1687 350° North  Level Estimated